Terminal Aerodrome Forecast
Issued by NWS

Home | Current Version | Previous Version | Graphics & Text | Print | Product List | Glossary On
Versions: 1 2 3 4 5 6 7 8 9 10 11 12 13 14 15
000
FTUS43 KTOP 261100
TAFFOE
TAF
KFOE 261134Z 2612/2712 34009KT P6SM SCT120
     FM270000 02006KT P6SM OVC080
     FM270300 04009KT 5SM -RA BR BKN020 OVC050
     FM270800 01006KT P6SM SCT025 BKN035=

USA.gov is the U.S. government's official web portal to all federal, state and local government web resources and services.